Time;durP1;ratioP1;P1;durP2;ratioP2;P2;SDS_P1;SDS_P2;PMS_P1;PMS_P2;Temp;Humidity;BMP_temperature;BMP_pressure;BME280_temperature;BME280_humidity;BME280_pressure;Samples;Min_cycle;Max_cycle;Signal;HPM_P1;HPM_P2
2023/10/03 00:00:31;;;;;;;36.45;11.13;;;20.40;99.90;;;;;;5075727;28;20484;-53
2023/10/03 00:02:58;;;;;;;32.95;11.55;;;20.40;99.90;;;;;;5076234;28;20032;-53
2023/10/03 00:05:34;;;;;;;;;;;20.40;99.90;;;;;;5076880;28;20103;-49
2023/10/03 00:08:04;;;;;;;31.75;10.20;;;20.40;99.90;;;;;;5065981;28;20003;-52
2023/10/03 00:10:32;;;;;;;28.95;10.02;;;20.40;99.90;;;;;;5075100;28;20503;-54
2023/10/03 00:12:59;;;;;;;43.17;11.48;;;20.40;99.90;;;;;;5076015;28;20041;-51
2023/10/03 00:15:25;;;;;;;38.05;11.25;;;20.40;99.90;;;;;;5076098;28;20071;-54
2023/10/03 00:17:52;;;;;;;29.50;10.13;;;20.40;99.90;;;;;;5074097;28;20024;-54
2023/10/03 00:20:18;;;;;;;29.70;10.10;;;20.40;99.90;;;;;;5075911;28;20083;-52
2023/10/03 00:22:48;;;;;;;30.83;10.65;;;20.40;99.90;;;;;;5075948;28;20032;-54
2023/10/03 00:27:54;;;;;;;33.55;10.40;;;20.40;99.90;;;;;;5056124;28;20040;-52
2023/10/03 00:30:24;;;;;;;39.17;12.85;;;20.40;99.90;;;;;;5068898;28;20050;-54
2023/10/03 00:32:51;;;;;;;38.50;12.32;;;20.40;99.90;;;;;;5075519;28;20481;-52
2023/10/03 00:35:19;;;;;;;31.10;10.05;;;20.40;99.90;;;;;;5075917;28;20112;-52
2023/10/03 00:37:46;;;;;;;31.15;11.23;;;20.30;99.90;;;;;;5073527;28;20028;-54
2023/10/03 00:42:48;;;;;;;31.48;11.40;;;20.30;99.90;;;;;;5059335;28;20040;-53
2023/10/03 00:45:24;;;;;;;29.73;10.82;;;20.30;99.90;;;;;;5055760;28;20393;-53
2023/10/03 00:47:53;;;;;;;36.90;11.27;;;20.30;99.90;;;;;;5066474;28;20025;-50
2023/10/03 00:50:20;;;;;;;34.95;11.52;;;20.20;99.90;;;;;;5074731;28;20520;-53
2023/10/03 00:52:55;;;;;;;33.10;11.17;;;20.20;99.90;;;;;;5074819;28;20370;-54
2023/10/03 00:55:29;;;;;;;34.60;11.60;;;20.10;99.90;;;;;;5073964;28;20029;-50
2023/10/03 01:00:43;;;;;;;33.63;10.55;;;20.00;99.90;;;;;;5073575;28;20116;-50
2023/10/03 01:03:37;;;;;;;40.72;12.32;;;20.10;99.90;;;;;;5073668;28;20048;-50
2023/10/03 01:06:07;;;;;;;29.08;11.05;;;20.10;99.90;;;;;;5070744;28;20376;-51
2023/10/03 01:08:36;;;;;;;38.80;11.55;;;20.10;99.90;;;;;;5072849;28;20043;-54
2023/10/03 01:11:18;;;;;;;35.72;12.20;;;20.10;99.90;;;;;;5074576;28;20116;-54
2023/10/03 01:14:00;;;;;;;28.38;9.52;;;20.00;99.90;;;;;;5074427;28;20047;-56
2023/10/03 01:16:32;;;;;;;31.90;11.15;;;20.10;99.90;;;;;;5064739;28;20016;-52
2023/10/03 01:21:42;;;;;;;37.65;11.63;;;20.00;99.90;;;;;;5071049;28;20166;-52
2023/10/03 01:24:09;;;;;;;35.85;12.20;;;20.00;99.90;;;;;;5073813;28;20119;-50
2023/10/03 01:26:35;;;;;;;36.55;11.70;;;20.00;99.90;;;;;;5073454;28;20041;-53
2023/10/03 01:29:01;;;;;;;36.75;11.13;;;20.10;99.90;;;;;;5074670;28;20369;-52
2023/10/03 01:31:29;;;;;;;32.15;10.98;;;20.10;99.90;;;;;;5074445;28;20504;-53
2023/10/03 01:33:55;;;;;;;38.60;11.95;;;20.00;99.90;;;;;;5074051;28;20035;-52
2023/10/03 01:36:20;;;;;;;29.80;10.40;;;20.00;99.90;;;;;;5074228;28;20527;-52
2023/10/03 01:38:46;;;;;;;32.17;11.55;;;20.10;99.90;;;;;;5073550;28;20029;-52
2023/10/03 01:41:13;;;;;;;29.20;10.32;;;20.10;99.90;;;;;;5073903;28;20108;-52
2023/10/03 01:43:43;;;;;;;32.75;10.70;;;20.00;99.90;;;;;;5074222;28;20020;-53
2023/10/03 01:46:17;;;;;;;37.65;11.40;;;20.00;99.90;;;;;;5074417;28;20444;-52
2023/10/03 01:48:43;;;;;;;32.63;11.25;;;20.00;99.90;;;;;;5074319;28;20392;-53
2023/10/03 01:51:09;;;;;;;30.05;10.50;;;20.00;99.90;;;;;;5073320;28;20038;-50
2023/10/03 01:53:35;;;;;;;34.75;11.15;;;20.00;99.90;;;;;;5071122;28;20058;-53
2023/10/03 01:56:03;;;;;;;33.50;11.68;;;20.00;99.90;;;;;;5073513;28;20056;-50
2023/10/03 01:58:29;;;;;;;;;;;20.00;99.90;;;;;;5074250;28;20032;-53
2023/10/03 02:00:54;;;;;;;29.55;10.40;;;20.00;99.90;;;;;;5073746;28;19908;-54
2023/10/03 02:03:22;;;;;;;36.67;11.43;;;20.00;99.90;;;;;;5072818;28;20086;-49
2023/10/03 02:05:48;;;;;;;35.55;10.95;;;20.10;99.90;;;;;;5071608;28;20386;-53
2023/10/03 02:08:17;;;;;;;30.15;10.25;;;20.10;99.90;;;;;;5072894;28;20028;-50
2023/10/03 02:10:48;;;;;;;32.75;10.85;;;20.20;99.90;;;;;;5074085;28;20032;-53
2023/10/03 02:13:17;;;;;;;29.23;10.23;;;20.20;99.90;;;;;;5071659;28;20044;-54
2023/10/03 02:15:47;;;;;;;35.10;11.35;;;20.20;99.90;;;;;;5073770;28;20518;-48
2023/10/03 02:18:14;;;;;;;38.05;11.38;;;20.20;99.90;;;;;;5074291;28;20052;-52
2023/10/03 02:20:50;;;;;;;36.60;11.88;;;20.20;99.90;;;;;;5073254;28;20473;-52
2023/10/03 02:23:19;;;;;;;32.53;11.40;;;20.20;99.90;;;;;;5071682;28;20029;-54
2023/10/03 02:25:46;;;;;;;32.83;12.05;;;20.20;99.90;;;;;;5073465;28;20029;-52
2023/10/03 02:28:15;;;;;;;34.78;10.52;;;20.30;99.90;;;;;;5073487;28;20075;-40
2023/10/03 02:30:41;;;;;;;26.77;10.05;;;20.40;99.90;;;;;;5073131;28;20032;-39
2023/10/03 02:33:12;;;;;;;32.22;9.07;;;20.40;99.90;;;;;;5070892;28;20048;-43
2023/10/03 02:35:42;;;;;;;27.67;8.85;;;20.40;99.90;;;;;;5073332;28;20142;-40
2023/10/03 02:38:23;;;;;;;31.15;9.82;;;20.40;99.90;;;;;;5072076;28;20074;-40
2023/10/03 02:40:57;;;;;;;27.45;10.35;;;20.40;99.90;;;;;;5072920;28;20125;-53
2023/10/03 02:43:23;;;;;;;28.02;11.02;;;20.40;99.90;;;;;;5073523;28;20493;-56
2023/10/03 02:45:49;;;;;;;23.00;7.68;;;20.50;99.90;;;;;;5073407;28;20020;-52
2023/10/03 02:48:15;;;;;;;26.83;10.07;;;20.50;99.90;;;;;;5072599;28;20029;-54
2023/10/03 02:50:42;;;;;;;31.27;9.85;;;20.50;99.90;;;;;;5071417;28;20497;-54
2023/10/03 02:53:12;;;;;;;25.73;8.88;;;20.50;99.90;;;;;;5071276;28;20433;-52
2023/10/03 02:55:37;;;;;;;24.38;8.90;;;20.50;99.90;;;;;;5073045;28;20078;-51
2023/10/03 02:58:05;;;;;;;24.13;8.43;;;20.50;99.90;;;;;;5073023;28;20051;-54
2023/10/03 03:00:33;;;;;;;;;;;20.50;99.90;;;;;;5073482;28;20090;-52
2023/10/03 03:02:59;;;;;;;25.98;8.13;;;20.50;99.90;;;;;;5072817;28;19963;-51
2023/10/03 03:10:57;;;;;;;28.10;8.32;;;20.60;99.90;;;;;;5072685;28;20119;-52
2023/10/03 03:13:32;;;;;;;30.00;7.78;;;20.50;99.90;;;;;;5072464;28;20044;-53
2023/10/03 03:15:59;;;;;;;26.52;8.85;;;20.50;99.90;;;;;;5070676;28;20148;-52
2023/10/03 03:18:49;;;;;;;27.20;8.52;;;20.50;99.90;;;;;;5069627;28;20016;-52
2023/10/03 03:21:15;;;;;;;22.73;7.18;;;20.50;99.90;;;;;;5072687;28;20039;-53
2023/10/03 03:23:43;;;;;;;23.50;7.65;;;20.50;99.90;;;;;;5071517;28;20108;-50
2023/10/03 03:28:39;;;;;;;18.45;6.78;;;20.60;99.90;;;;;;5071612;28;19915;-53
2023/10/03 03:31:16;;;;;;;32.60;7.53;;;20.60;99.90;;;;;;5073051;28;20025;-54
2023/10/03 03:33:45;;;;;;;17.88;6.13;;;20.60;99.90;;;;;;5072561;28;20096;-53
2023/10/03 03:36:17;;;;;;;17.70;6.63;;;20.60;99.90;;;;;;5071658;28;20021;-53
2023/10/03 03:38:47;;;;;;;29.02;7.43;;;20.60;99.90;;;;;;5071806;28;20016;-51
2023/10/03 03:41:14;;;;;;;19.40;6.72;;;20.60;99.90;;;;;;5072673;28;20103;-53
2023/10/03 03:43:42;;;;;;;18.92;5.68;;;20.60;99.90;;;;;;5073139;28;20411;-53
2023/10/03 03:46:08;;;;;;;20.92;6.32;;;20.60;99.90;;;;;;5072805;28;20491;-49
2023/10/03 03:48:34;;;;;;;15.73;5.70;;;20.60;99.90;;;;;;5072349;28;20017;-49
2023/10/03 03:51:00;;;;;;;15.27;5.70;;;20.60;99.90;;;;;;5072438;28;20334;-50
2023/10/03 03:53:26;;;;;;;16.48;5.28;;;20.60;99.90;;;;;;5071567;28;20024;-51
2023/10/03 03:55:51;;;;;;;20.30;5.20;;;20.50;99.90;;;;;;5071480;28;20028;-52
2023/10/03 03:58:20;;;;;;;12.45;4.25;;;20.50;99.90;;;;;;5072191;28;20021;-51
2023/10/03 04:00:51;;;;;;;15.30;5.05;;;20.40;99.90;;;;;;5072381;28;20057;-54
2023/10/03 04:03:18;;;;;;;12.55;4.18;;;20.30;99.90;;;;;;5072018;28;20090;-53
2023/10/03 04:05:46;;;;;;;16.13;3.92;;;20.20;99.90;;;;;;5071892;28;20079;-50
2023/10/03 04:08:12;;;;;;;13.05;4.07;;;20.20;99.90;;;;;;5070065;28;20046;-50
2023/10/03 04:10:38;;;;;;;10.90;3.72;;;20.10;99.90;;;;;;5071433;28;20454;-53
2023/10/03 04:13:15;;;;;;;17.35;3.65;;;20.00;99.90;;;;;;5071659;28;20016;-53
2023/10/03 04:15:41;;;;;;;15.43;3.92;;;19.90;99.90;;;;;;5072283;28;20029;-52
2023/10/03 04:18:08;;;;;;;19.42;4.47;;;19.90;99.90;;;;;;5071426;28;20034;-52
2023/10/03 04:20:35;;;;;;;16.27;3.72;;;20.00;99.90;;;;;;5071114;28;20044;-53
2023/10/03 04:23:03;;;;;;;19.00;4.05;;;20.00;99.90;;;;;;5062185;28;20428;-54
2023/10/03 04:25:30;;;;;;;10.98;3.55;;;19.90;99.90;;;;;;5066989;28;20110;-51
2023/10/03 04:27:56;;;;;;;15.82;4.10;;;19.90;99.90;;;;;;5071166;28;20048;-54
2023/10/03 04:30:26;;;;;;;9.25;3.70;;;19.90;99.90;;;;;;5075762;28;20074;-54
2023/10/03 04:32:54;;;;;;;13.85;4.40;;;19.80;99.90;;;;;;5075956;28;20028;-54
2023/10/03 04:35:20;;;;;;;;;;;19.80;99.90;;;;;;5076651;28;20044;-54
2023/10/03 04:37:57;;;;;;;12.30;4.60;;;19.70;99.90;;;;;;5075343;28;19999;-54
2023/10/03 04:40:35;;;;;;;15.13;4.28;;;19.70;99.90;;;;;;5074415;28;20025;-53
2023/10/03 04:43:11;;;;;;;12.18;3.70;;;19.70;99.90;;;;;;5075476;28;20024;-53
2023/10/03 04:45:37;;;;;;;16.42;4.75;;;19.70;99.90;;;;;;5075532;28;20028;-50
2023/10/03 04:48:03;;;;;;;21.50;4.37;;;19.70;99.90;;;;;;5075474;28;20025;-51
2023/10/03 04:50:29;;;;;;;11.90;4.30;;;19.60;99.90;;;;;;5075641;28;20278;-52
2023/10/03 04:52:55;;;;;;;17.00;4.35;;;19.60;99.90;;;;;;5059222;28;20025;-53
2023/10/03 04:55:23;;;;;;;13.93;4.50;;;19.60;99.90;;;;;;5065371;28;20032;-53
2023/10/03 04:57:51;;;;;;;12.82;4.22;;;19.50;99.90;;;;;;5058462;28;20021;-54
2023/10/03 05:00:18;;;;;;;14.20;4.55;;;19.50;99.90;;;;;;5065344;28;20078;-51
2023/10/03 05:02:51;;;;;;;10.63;3.55;;;19.60;99.90;;;;;;5093272;28;20031;-51
2023/10/03 05:05:25;;;;;;;11.40;4.05;;;19.60;99.90;;;;;;5094296;28;20031;-52
2023/10/03 05:07:54;;;;;;;8.57;3.05;;;19.50;99.90;;;;;;5070708;28;20039;-53
2023/10/03 05:10:20;;;;;;;9.77;3.40;;;19.50;99.90;;;;;;5073866;28;20024;-54
2023/10/03 05:12:46;;;;;;;11.35;3.33;;;19.50;99.90;;;;;;5073048;28;20492;-52
2023/10/03 05:15:14;;;;;;;10.07;3.58;;;19.50;99.90;;;;;;5072675;28;20505;-51
2023/10/03 05:17:43;;;;;;;7.85;3.42;;;19.50;99.90;;;;;;5073760;28;20013;-53
2023/10/03 05:20:13;;;;;;;13.52;3.25;;;19.50;99.90;;;;;;5065343;28;20529;-53
2023/10/03 05:22:45;;;;;;;10.48;2.83;;;19.50;99.90;;;;;;5071604;28;20362;-53
2023/10/03 05:25:12;;;;;;;5.95;2.47;;;19.50;99.90;;;;;;5074337;28;20016;-54
2023/10/03 05:27:42;;;;;;;6.47;2.30;;;19.50;99.90;;;;;;5071948;28;20029;-52
2023/10/03 05:30:09;;;;;;;10.73;2.85;;;19.40;99.90;;;;;;5070734;28;20025;-49
2023/10/03 05:32:38;;;;;;;6.50;2.25;;;19.40;99.90;;;;;;5074357;28;20086;-53
2023/10/03 05:35:06;;;;;;;10.95;2.95;;;19.40;99.90;;;;;;5073274;28;20028;-54
2023/10/03 05:37:35;;;;;;;9.10;3.00;;;19.40;99.90;;;;;;5074631;28;20024;-51
2023/10/03 05:40:20;;;;;;;11.88;2.58;;;19.30;99.90;;;;;;5073121;28;20103;-52
2023/10/03 05:42:47;;;;;;;14.90;2.88;;;19.30;99.90;;;;;;5074365;28;20028;-54
2023/10/03 05:45:14;;;;;;;12.73;3.63;;;19.30;99.90;;;;;;5073748;28;20025;-55
2023/10/03 05:47:47;;;;;;;12.57;2.75;;;19.30;99.90;;;;;;5073088;28;20500;-47
2023/10/03 05:50:17;;;;;;;9.95;3.17;;;19.30;99.90;;;;;;5074329;28;20024;-53
2023/10/03 05:52:44;;;;;;;6.10;2.63;;;19.30;99.90;;;;;;5070204;28;20393;-55
2023/10/03 05:55:10;;;;;;;6.15;2.83;;;19.30;99.90;;;;;;5072447;28;20377;-54
2023/10/03 05:57:38;;;;;;;6.57;3.13;;;19.30;99.90;;;;;;5073933;28;20021;-51
2023/10/03 06:00:09;;;;;;;9.55;3.10;;;19.30;99.90;;;;;;5060068;28;20025;-55
2023/10/03 06:02:39;;;;;;;9.95;3.33;;;19.30;99.90;;;;;;5066538;28;20028;-53
2023/10/03 06:05:08;;;;;;;11.65;3.90;;;19.30;99.90;;;;;;5061204;28;20036;-52
2023/10/03 06:07:34;;;;;;;8.07;2.67;;;19.30;99.90;;;;;;5064455;28;20089;-53
2023/10/03 06:10:00;;;;;;;6.38;2.50;;;19.40;99.90;;;;;;5057958;28;20082;-53
2023/10/03 06:12:28;;;;;;;3.65;2.70;;;19.40;99.90;;;;;;5056964;28;20686;-50
2023/10/03 06:14:54;;;;;;;6.93;2.70;;;19.30;99.90;;;;;;5066160;28;20041;-51
2023/10/03 06:17:20;;;;;;;9.50;2.63;;;19.30;99.90;;;;;;5054278;28;20069;-54
2023/10/03 06:19:45;;;;;;;6.95;2.40;;;19.30;99.90;;;;;;5067504;28;20020;-52
2023/10/03 06:22:12;;;;;;;10.07;2.65;;;19.20;99.90;;;;;;5073838;28;20031;-54
2023/10/03 06:24:41;;;;;;;10.13;2.87;;;19.30;99.90;;;;;;5073796;28;20020;-52
2023/10/03 06:27:08;;;;;;;9.88;2.70;;;19.30;99.90;;;;;;5073573;28;20051;-54
2023/10/03 06:29:34;;;;;;;8.75;2.10;;;19.30;99.90;;;;;;5073516;28;20048;-52
2023/10/03 06:32:00;;;;;;;3.95;2.35;;;19.30;99.90;;;;;;5072563;28;20024;-53
2023/10/03 06:34:26;;;;;;;5.53;2.13;;;19.30;99.90;;;;;;5071715;28;20358;-54
2023/10/03 06:36:52;;;;;;;4.43;1.63;;;19.40;99.90;;;;;;5071596;28;20516;-52
2023/10/03 06:39:18;;;;;;;10.23;2.28;;;19.40;99.90;;;;;;5056225;28;20017;-51
2023/10/03 06:41:44;;;;;;;5.75;1.70;;;19.30;99.90;;;;;;5053289;28;20501;-54
2023/10/03 06:44:09;;;;;;;5.78;1.38;;;19.30;99.90;;;;;;5053902;28;20110;-53
2023/10/03 06:46:37;;;;;;;8.80;1.80;;;19.30;99.90;;;;;;5053221;28;20505;-49
2023/10/03 06:49:03;;;;;;;7.80;1.38;;;19.30;99.90;;;;;;5053463;28;20102;-51
2023/10/03 06:51:29;;;;;;;5.63;1.20;;;19.30;99.90;;;;;;5056702;28;20031;-53
2023/10/03 06:53:55;;;;;;;6.32;1.50;;;19.20;99.90;;;;;;5070854;28;20043;-52
2023/10/03 06:56:22;;;;;;;3.75;1.45;;;19.20;99.90;;;;;;5072006;28;20013;-49
2023/10/03 06:58:48;;;;;;;2.37;1.23;;;19.20;99.90;;;;;;5055900;28;20367;-53
2023/10/03 07:01:14;;;;;;;3.63;1.58;;;19.20;99.90;;;;;;5054601;28;20036;-53
2023/10/03 07:03:40;;;;;;;5.32;1.40;;;19.20;99.90;;;;;;5054371;28;20111;-53
2023/10/03 07:06:07;;;;;;;2.38;0.93;;;19.20;99.90;;;;;;5073070;28;20059;-50
2023/10/03 07:08:34;;;;;;;21.00;2.10;;;19.10;99.90;;;;;;5061474;28;20035;-53
2023/10/03 07:11:00;;;;;;;3.80;0.87;;;19.10;99.90;;;;;;5065831;28;20097;-51
2023/10/03 07:13:26;;;;;;;8.50;1.48;;;19.10;99.90;;;;;;5062952;28;20048;-54
2023/10/03 07:15:56;;;;;;;4.65;1.45;;;19.10;99.90;;;;;;5065985;28;20025;-54
2023/10/03 07:18:22;;;;;;;7.38;1.40;;;19.10;99.90;;;;;;5072707;28;20021;-54
2023/10/03 07:20:48;;;;;;;3.92;1.67;;;19.00;99.90;;;;;;5071663;28;20013;-54
2023/10/03 07:23:14;;;;;;;3.83;1.17;;;19.00;99.90;;;;;;5072407;28;20032;-55
2023/10/03 07:25:39;;;;;;;6.22;1.60;;;19.00;99.90;;;;;;5072704;28;20074;-55
2023/10/03 07:28:05;;;;;;;7.78;2.20;;;19.00;99.90;;;;;;5070172;28;20103;-53
2023/10/03 07:30:31;;;;;;;4.50;1.17;;;18.90;99.90;;;;;;5064970;28;20491;-55
2023/10/03 07:32:57;;;;;;;12.30;2.55;;;18.80;99.90;;;;;;5067995;28;20029;-52
2023/10/03 07:35:23;;;;;;;7.88;1.80;;;18.80;99.90;;;;;;5072390;28;20376;-51
2023/10/03 07:37:51;;;;;;;3.45;1.13;;;18.70;99.90;;;;;;5072034;28;20021;-55
2023/10/03 07:40:17;;;;;;;1.38;0.90;;;18.40;99.90;;;;;;5072220;28;20024;-49
2023/10/03 07:42:43;;;;;;;2.45;0.80;;;18.10;99.90;;;;;;5072848;28;20397;-52
2023/10/03 07:45:09;;;;;;;6.72;1.13;;;17.80;99.90;;;;;;5069050;28;20029;-53
2023/10/03 07:47:37;;;;;;;2.95;1.27;;;17.50;99.90;;;;;;5057357;28;20036;-54
2023/10/03 07:50:03;;;;;;;;;;;17.30;99.90;;;;;;5061803;28;20036;-53
2023/10/03 07:52:29;;;;;;;4.10;1.00;;;17.20;99.90;;;;;;5072533;28;20375;-51
2023/10/03 07:54:56;;;;;;;7.72;0.82;;;17.20;99.90;;;;;;5072430;28;20020;-52
2023/10/03 07:57:23;;;;;;;7.47;1.33;;;17.10;99.90;;;;;;5072653;28;20032;-54
2023/10/03 07:59:50;;;;;;;10.40;1.07;;;17.00;99.90;;;;;;5072415;28;20021;-48
2023/10/03 08:02:16;;;;;;;4.00;1.80;;;17.00;99.90;;;;;;5071577;28;20381;-50
2023/10/03 08:04:45;;;;;;;12.73;1.70;;;17.00;99.90;;;;;;5059765;28;20028;-53
2023/10/03 08:07:19;;;;;;;11.23;1.60;;;17.10;99.90;;;;;;5083359;28;20049;-51
2023/10/03 08:09:47;;;;;;;4.18;1.08;;;17.10;99.90;;;;;;5069288;28;20409;-52
2023/10/03 08:12:13;;;;;;;16.00;1.67;;;17.10;99.90;;;;;;5068102;28;20036;-49
2023/10/03 08:14:40;;;;;;;5.30;1.02;;;17.00;99.90;;;;;;5069691;28;20059;-48
2023/10/03 08:17:06;;;;;;;5.95;0.88;;;16.90;99.90;;;;;;5065350;28;20032;-53
2023/10/03 08:19:32;;;;;;;5.72;1.33;;;16.70;99.90;;;;;;5075610;28;20028;-51
2023/10/03 08:21:58;;;;;;;6.15;1.35;;;16.60;99.90;;;;;;5073622;28;20496;-49
2023/10/03 08:24:25;;;;;;;5.00;0.70;;;16.50;99.90;;;;;;5075397;28;20021;-50
2023/10/03 08:26:52;;;;;;;3.30;0.90;;;16.50;99.90;;;;;;5075568;28;20420;-50
2023/10/03 08:29:21;;;;;;;3.80;0.60;;;16.50;99.90;;;;;;5074513;28;20025;-51
2023/10/03 08:31:57;;;;;;;7.75;1.20;;;16.60;99.90;;;;;;5075465;28;20029;-53
2023/10/03 08:34:30;;;;;;;8.45;0.80;;;16.70;99.90;;;;;;5073139;28;20469;-50
2023/10/03 08:36:59;;;;;;;3.30;0.50;;;16.70;99.90;;;;;;5074862;28;20027;-51
2023/10/03 08:39:26;;;;;;;6.93;0.70;;;16.80;99.90;;;;;;5075509;28;20028;-50
2023/10/03 08:42:15;;;;;;;2.15;0.70;;;16.80;99.90;;;;;;5075596;28;20477;-50
2023/10/03 08:44:52;;;;;;;6.95;1.08;;;16.80;99.90;;;;;;5075497;28;20020;-51
2023/10/03 08:47:35;;;;;;;6.63;0.50;;;16.80;99.90;;;;;;5075580;28;20473;-45
2023/10/03 08:50:13;;;;;;;8.90;0.77;;;16.70;99.90;;;;;;5075682;28;20373;-48
2023/10/03 08:52:48;;;;;;;3.65;0.80;;;16.40;99.90;;;;;;5074767;28;20033;-51
2023/10/03 08:55:19;;;;;;;8.27;0.50;;;16.30;99.90;;;;;;5074543;28;20502;-51
2023/10/03 08:57:47;;;;;;;4.25;1.08;;;16.10;99.90;;;;;;5074012;28;20028;-52
2023/10/03 09:00:13;;;;;;;4.38;0.60;;;16.10;99.90;;;;;;5075324;28;20023;-52
2023/10/03 09:02:47;;;;;;;3.83;0.57;;;16.00;99.90;;;;;;5075200;28;20021;-52
2023/10/03 09:05:19;;;;;;;3.78;0.50;;;16.00;99.90;;;;;;5075069;28;20500;-48
2023/10/03 09:07:48;;;;;;;3.40;0.77;;;16.00;99.90;;;;;;5075093;28;20049;-53
2023/10/03 09:10:24;;;;;;;3.55;0.50;;;16.00;99.90;;;;;;5061433;28;20351;-51
2023/10/03 09:13:04;;;;;;;6.85;0.90;;;16.10;99.90;;;;;;5055487;28;20031;-53
2023/10/03 09:15:42;;;;;;;5.20;0.80;;;16.10;99.90;;;;;;5062469;28;20123;-50
2023/10/03 09:18:10;;;;;;;2.72;1.15;;;16.20;99.90;;;;;;5095450;28;20027;-52
2023/10/03 09:20:36;;;;;;;2.25;0.50;;;16.20;99.90;;;;;;5095157;28;20008;-52
2023/10/03 09:23:07;;;;;;;4.88;0.70;;;16.30;99.90;;;;;;5085088;28;20526;-52
2023/10/03 09:25:34;;;;;;;3.75;0.52;;;16.40;99.90;;;;;;5070430;28;20017;-52
2023/10/03 09:28:04;;;;;;;;;;;16.40;99.90;;;;;;5055604;28;20025;-53
2023/10/03 09:30:37;;;;;;;1.55;0.60;;;16.50;99.90;;;;;;5054676;28;20357;-51
2023/10/03 09:33:08;;;;;;;1.35;0.43;;;16.50;99.90;;;;;;5067981;28;20037;-51
2023/10/03 09:35:34;;;;;;;4.28;0.47;;;16.50;99.90;;;;;;5053381;28;20025;-52
2023/10/03 09:38:05;;;;;;;9.45;1.40;;;16.40;99.90;;;;;;5057311;28;20477;-52
2023/10/03 09:40:51;;;;;;;2.00;0.45;;;16.40;99.90;;;;;;5061104;28;20032;-52
2023/10/03 09:43:27;;;;;;;5.57;1.35;;;16.40;99.90;;;;;;5073751;28;20025;-51
2023/10/03 09:45:56;;;;;;;3.85;0.50;;;16.40;99.90;;;;;;5073957;28;20052;-53
2023/10/03 09:48:24;;;;;;;4.32;1.27;;;16.40;99.90;;;;;;5074226;28;20054;-52
2023/10/03 09:51:05;;;;;;;2.17;0.68;;;16.50;99.90;;;;;;5074285;28;20059;-52
2023/10/03 09:53:32;;;;;;;3.05;0.63;;;16.50;99.90;;;;;;5067757;28;20367;-53
2023/10/03 09:56:00;;;;;;;6.63;0.85;;;16.60;99.90;;;;;;5067209;28;20055;-52
2023/10/03 09:58:31;;;;;;;3.85;0.70;;;16.60;99.90;;;;;;5074216;28;20078;-51
2023/10/03 10:00:58;;;;;;;4.57;0.63;;;16.70;99.90;;;;;;5071060;28;20021;-50
2023/10/03 10:03:37;;;;;;;1.80;0.33;;;16.60;99.90;;;;;;5073969;28;20378;-52
2023/10/03 10:06:12;;;;;;;0.93;0.47;;;16.50;99.90;;;;;;5074046;28;20029;-48
2023/10/03 10:08:57;;;;;;;1.42;0.52;;;16.40;99.90;;;;;;5073200;28;20489;-49
2023/10/03 10:11:26;;;;;;;1.40;0.50;;;16.10;99.90;;;;;;5073953;28;20448;-47
2023/10/03 10:14:02;;;;;;;4.38;0.57;;;15.90;99.90;;;;;;5058825;28;20025;-52
2023/10/03 10:16:28;;;;;;;4.95;1.48;;;15.70;99.90;;;;;;5071506;28;20059;-52
2023/10/03 10:18:55;;;;;;;4.45;0.70;;;15.60;99.90;;;;;;5067890;28;20044;-51
2023/10/03 10:21:23;;;;;;;5.13;0.80;;;15.50;99.90;;;;;;5054187;28;20427;-51
2023/10/03 10:24:20;;;;;;;6.22;0.77;;;15.50;99.90;;;;;;5065522;28;20082;-51
2023/10/03 10:26:52;;;;;;;6.72;0.98;;;15.40;99.90;;;;;;5073061;28;20028;-51
2023/10/03 10:29:23;;;;;;;4.63;1.50;;;15.30;99.90;;;;;;5061007;28;20025;-53
2023/10/03 10:32:00;;;;;;;7.10;1.20;;;15.20;99.90;;;;;;5052143;28;20094;-54
2023/10/03 10:34:32;;;;;;;5.78;0.80;;;15.20;99.90;;;;;;5059794;28;20111;-51
2023/10/03 10:37:03;;;;;;;3.95;0.80;;;15.20;99.90;;;;;;5065592;28;20033;-51
2023/10/03 10:39:56;;;;;;;5.00;0.90;;;15.30;99.90;;;;;;5053494;28;20090;-51
2023/10/03 10:42:26;;;;;;;4.47;1.60;;;15.30;99.90;;;;;;5054472;28;20033;-52
2023/10/03 10:45:04;;;;;;;7.93;1.20;;;15.30;99.90;;;;;;5070161;28;20480;-53
2023/10/03 10:47:43;;;;;;;4.10;1.50;;;15.30;99.90;;;;;;5073173;28;20032;-53
2023/10/03 10:50:09;;;;;;;7.60;1.17;;;15.40;99.90;;;;;;5072268;28;20035;-51
2023/10/03 10:52:57;;;;;;;5.85;1.35;;;15.50;99.90;;;;;;5059312;28;20398;-52
2023/10/03 10:55:24;;;;;;;5.10;1.10;;;15.40;99.90;;;;;;5063601;28;20025;-53
2023/10/03 10:58:09;;;;;;;7.23;1.30;;;15.30;99.90;;;;;;5061910;28;20024;-47
2023/10/03 11:00:37;;;;;;;5.68;0.70;;;15.30;99.90;;;;;;5057155;28;20032;-52
2023/10/03 11:03:04;;;;;;;4.53;1.05;;;15.30;99.90;;;;;;5072898;28;20021;-53
2023/10/03 11:05:42;;;;;;;4.55;1.30;;;15.30;99.90;;;;;;5067291;28;20021;-53
2023/10/03 11:08:08;;;;;;;11.27;1.30;;;15.40;99.90;;;;;;5066668;28;20103;-51
2023/10/03 11:10:34;;;;;;;7.97;1.20;;;15.40;99.90;;;;;;5066198;28;20496;-39
2023/10/03 11:13:03;;;;;;;2.88;1.20;;;15.30;99.90;;;;;;5068259;28;20060;-41
2023/10/03 11:15:30;;;;;;;4.78;1.50;;;15.30;99.90;;;;;;5052634;28;20041;-38
2023/10/03 11:17:58;;;;;;;7.45;1.70;;;15.30;99.90;;;;;;5056598;28;20444;-38
2023/10/03 11:20:24;;;;;;;7.38;2.00;;;15.30;99.90;;;;;;5053307;28;20017;-39
2023/10/03 11:22:50;;;;;;;6.05;1.25;;;15.30;99.90;;;;;;5061105;28;20020;-45
2023/10/03 11:25:17;;;;;;;5.70;1.55;;;15.30;99.90;;;;;;5071957;28;20112;-39
2023/10/03 11:27:43;;;;;;;16.27;2.17;;;15.30;99.90;;;;;;5065521;28;20025;-38
2023/10/03 11:30:18;;;;;;;4.18;1.38;;;15.20;99.90;;;;;;5052870;28;20035;-41
2023/10/03 11:32:44;;;;;;;9.60;1.25;;;15.10;99.90;;;;;;5052462;28;20075;-41
2023/10/03 11:35:21;;;;;;;7.13;1.83;;;15.00;99.90;;;;;;5052906;28;20021;-40
2023/10/03 11:37:48;;;;;;;5.22;1.55;;;15.00;99.90;;;;;;5058863;28;20024;-41
2023/10/03 11:40:20;;;;;;;10.57;1.70;;;15.10;99.90;;;;;;5069855;28;20374;-40
2023/10/03 11:43:07;;;;;;;8.95;1.73;;;15.00;99.90;;;;;;5076047;28;20111;-47
2023/10/03 11:45:34;;;;;;;11.70;2.22;;;14.90;99.90;;;;;;5076084;28;20036;-41
2023/10/03 11:48:05;;;;;;;5.72;1.52;;;14.80;99.90;;;;;;5076883;28;20435;-40
2023/10/03 11:50:32;;;;;;;13.05;1.98;;;14.70;99.90;;;;;;5075762;28;20087;-42
2023/10/03 11:52:58;;;;;;;4.35;1.50;;;14.70;99.90;;;;;;5056451;28;20035;-40
2023/10/03 11:55:25;;;;;;;5.55;1.38;;;14.60;99.90;;;;;;5062383;28;20048;-42
2023/10/03 11:57:51;;;;;;;5.38;1.02;;;14.60;99.90;;;;;;5066531;28;20040;-39
2023/10/03 12:00:17;;;;;;;7.70;2.05;;;14.60;99.90;;;;;;5074414;28;20027;-39
2023/10/03 12:02:48;;;;;;;7.22;1.23;;;14.60;99.90;;;;;;5076409;28;20031;-42
2023/10/03 12:05:14;;;;;;;6.43;1.65;;;14.50;99.90;;;;;;5072312;28;20056;-38
2023/10/03 12:07:45;;;;;;;3.75;1.10;;;14.60;99.90;;;;;;5057419;28;20087;-39
2023/10/03 12:10:12;;;;;;;5.38;1.65;;;14.60;99.90;;;;;;5056701;28;20028;-39
2023/10/03 12:12:38;;;;;;;7.03;1.17;;;14.70;99.90;;;;;;5066887;28;20025;-38
2023/10/03 12:15:12;;;;;;;7.72;1.52;;;14.70;99.90;;;;;;5057155;28;20037;-39
2023/10/03 12:17:47;;;;;;;9.63;1.63;;;14.70;99.90;;;;;;5056274;28;20478;-38
2023/10/03 12:20:16;;;;;;;5.97;1.25;;;14.70;99.90;;;;;;5059681;28;20017;-39
2023/10/03 12:22:48;;;;;;;7.63;1.25;;;14.80;99.90;;;;;;5075865;28;20033;-39
2023/10/03 12:25:16;;;;;;;9.32;2.40;;;15.00;99.90;;;;;;5073799;28;20024;-38
2023/10/03 12:27:44;;;;;;;8.05;1.45;;;15.00;99.90;;;;;;5055891;28;20029;-41
2023/10/03 12:30:15;;;;;;;9.52;1.42;;;15.10;99.90;;;;;;5064201;28;20024;-39
2023/10/03 12:32:43;;;;;;;14.05;1.85;;;15.10;99.90;;;;;;5074580;28;20039;-37
2023/10/03 12:35:10;;;;;;;6.22;1.48;;;15.00;99.90;;;;;;5074210;28;20082;-38
2023/10/03 12:37:37;;;;;;;9.87;2.47;;;15.00;99.90;;;;;;5056035;28;20386;-39
2023/10/03 12:40:14;;;;;;;4.43;1.60;;;15.00;99.90;;;;;;5055628;28;20029;-37
2023/10/03 12:42:47;;;;;;;11.65;1.60;;;15.10;99.90;;;;;;5058927;28;20031;-39
2023/10/03 12:45:15;;;;;;;7.35;2.08;;;15.10;99.90;;;;;;5054298;28;20025;-38
2023/10/03 12:47:47;;;;;;;9.23;1.73;;;15.20;99.90;;;;;;5060549;28;20032;-38
2023/10/03 12:50:23;;;;;;;9.77;1.85;;;15.30;99.90;;;;;;5064184;28;20035;-41
2023/10/03 12:52:57;;;;;;;5.72;1.50;;;15.40;99.90;;;;;;5055927;28;20041;-40
2023/10/03 12:55:27;;;;;;;8.90;1.98;;;15.40;99.90;;;;;;5060854;28;20021;-41
2023/10/03 12:57:56;;;;;;;7.72;1.40;;;15.20;99.90;;;;;;5075319;28;20028;-44
2023/10/03 13:00:23;;;;;;;3.38;1.40;;;14.90;99.90;;;;;;5075541;28;20488;-43
2023/10/03 13:02:50;;;;;;;1.55;1.20;;;14.60;99.90;;;;;;5075247;28;20476;-39
2023/10/03 13:05:17;;;;;;;5.45;1.20;;;14.40;99.90;;;;;;5072269;28;20673;-41
2023/10/03 13:07:45;;;;;;;8.15;1.23;;;14.40;99.90;;;;;;5072967;28;20120;-39
2023/10/03 13:10:14;;;;;;;4.03;1.10;;;14.30;99.90;;;;;;5070483;28;20087;-38
2023/10/03 13:12:51;;;;;;;3.20;1.23;;;14.40;99.90;;;;;;5063122;28;20564;-37